Aviation Digital Data Service (ADDS)

Output produced by TAFs form (1922 UTC 21 April 2018)
found at http://aviationweather.gov/adds/tafs/
 
Forecast for: RJOC (IZUMO AIRPORT , JP)
Text: TAF RJOC 211706Z 2118/2300 17005KT 9999 FEW030
Forecast period: 1800 UTC 21 April 2018 to 0200 UTC 22 April 2018
Forecast type: FROM: standard forecast or significant change
Winds: from the S (170 degrees) at 6 MPH (5 knots; 2.6 m/s)
Visibility: 6 or more miles (10+ km)
Clouds: few clouds at 3000 feet AGL
Weather: no significant weather forecast for this period
Forecast for: RJOC (IZUMO AIRPORT , JP)
Text: TAF RJOC 211706Z 2118/2300 17005KT 9999 FEW030
Forecast period: 1800 UTC 21 April 2018 to 0200 UTC 22 April 2018
Forecast type: FROM: standard forecast or significant change
Winds: from the S (170 degrees) at 6 MPH (5 knots; 2.6 m/s)
Visibility: 6 or more miles (10+ km)
Clouds: few clouds at 3000 feet AGL
Weather: no significant weather forecast for this period
Forecast for: RJOC (IZUMO AIRPORT , JP)
Text: TAF RJOC 211706Z 2118/2300 17005KT 9999 FEW030
Forecast period: 0200 to 1200 UTC 22 April 2018
Forecast type: BECOMING: Conditions expected to become as follows by 0400 UTC 22 April 2018
Winds: from the N (360 degrees) at 7 MPH (6 knots; 3.1 m/s)
Visibility: 6 or more miles (10+ km)
Clouds: few clouds at 3000 feet AGL
Weather: no significant weather forecast for this period
Forecast for: RJOC (IZUMO AIRPORT , JP)
Text: TAF RJOC 211706Z 2118/2300 17005KT 9999 FEW030
Forecast period: 0200 to 1200 UTC 22 April 2018
Forecast type: BECOMING: Conditions expected to become as follows by 0400 UTC 22 April 2018
Winds: from the N (360 degrees) at 7 MPH (6 knots; 3.1 m/s)
Visibility: 6 or more miles (10+ km)
Clouds: few clouds at 3000 feet AGL
Weather: no significant weather forecast for this period
Forecast for: RJOC (IZUMO AIRPORT , JP)
Text: TAF RJOC 211706Z 2118/2300 17005KT 9999 FEW030
Forecast period: 1200 UTC 22 April 2018 to 0000 UTC 23 April 2018
Forecast type: BECOMING: Conditions expected to become as follows by 1500 UTC 22 April 2018
Winds: from the SSE (160 degrees) at 5 MPH (4 knots; 2.1 m/s)
Visibility: 6 or more miles (10+ km)
Clouds: few clouds at 3000 feet AGL
Weather: no significant weather forecast for this period
Forecast for: RJOC (IZUMO AIRPORT , JP)
Text: TAF RJOC 211706Z 2118/2300 17005KT 9999 FEW030
Forecast period: 1200 UTC 22 April 2018 to 0000 UTC 23 April 2018
Forecast type: BECOMING: Conditions expected to become as follows by 1500 UTC 22 April 2018
Winds: from the SSE (160 degrees) at 5 MPH (4 knots; 2.1 m/s)
Visibility: 6 or more miles (10+ km)
Clouds: few clouds at 3000 feet AGL
Weather: no significant weather forecast for this period
Forecast for: RJOC (IZUMO AIRPORT , JP)
Text: TAF RJOC 211706Z 2118/2300 17005KT 9999 FEW030
Forecast period: 1800 UTC 22 April 2018 to 0000 UTC 23 April 2018
Forecast type: TEMPORARY: The following changes expected for less than half the time period
Visibility: 1.24 miles (2.00 km)
Ceiling: 900 feet AGL
Clouds: few clouds at 0 feet AGL
scattered clouds at 500 feet AGL
broken clouds at 900 feet AGL
Weather: BR BCFG  (mist, patches of fog)
Forecast for: RJOC (IZUMO AIRPORT , JP)
Text: TAF RJOC 211706Z 2118/2300 17005KT 9999 FEW030
Forecast period: 1800 UTC 22 April 2018 to 0000 UTC 23 April 2018
Forecast type: TEMPORARY: The following changes expected for less than half the time period
Visibility: 1.24 miles (2.00 km)
Ceiling: 900 feet AGL
Clouds: few clouds at 0 feet AGL
scattered clouds at 500 feet AGL
broken clouds at 900 feet AGL
Weather: BR BCFG  (mist, patches of fog)